createdAt,value
2022-11-06T00:00:47.187Z,99873.38
2022-11-06T00:03:14.147Z,99874.28
2022-11-06T00:06:00.392Z,99881.19
2022-11-06T00:08:37.279Z,99882.91
2022-11-06T00:11:10.940Z,99874.25
2022-11-06T00:13:38.082Z,99884.66
2022-11-06T00:16:05.575Z,99886.41
2022-11-06T00:18:32.652Z,99882.91
2022-11-06T00:20:59.573Z,99884.66
2022-11-06T00:23:26.231Z,99890.66
2022-11-06T00:25:56.506Z,99884.59
2022-11-06T00:28:23.595Z,99889.88
2022-11-06T00:30:50.385Z,99881.22
2022-11-06T00:33:17.070Z,99881.16
2022-11-06T00:35:43.990Z,99884.63
2022-11-06T00:38:10.921Z,99884.63
2022-11-06T00:40:37.820Z,99877.69
2022-11-06T00:43:04.699Z,99881.19
2022-11-06T00:45:31.418Z,99870.81
2022-11-06T00:47:58.089Z,99879.44
2022-11-06T00:50:26.543Z,99882.03
2022-11-06T00:52:53.675Z,99882.09
2022-11-06T00:55:20.439Z,99877.72
2022-11-06T00:57:47.376Z,99882.91
2022-11-06T01:00:14.146Z,99876.00
2022-11-06T01:02:41.035Z,99869.94
2022-11-06T01:05:09.041Z,99879.47
2022-11-06T01:07:35.774Z,99882.97
2022-11-06T01:10:02.402Z,99885.53
2022-11-06T01:12:31.211Z,99880.38
2022-11-06T01:14:59.104Z,99886.44
2022-11-06T01:17:25.841Z,99893.31
2022-11-06T01:19:52.806Z,99896.81
2022-11-06T01:22:19.452Z,99886.44
2022-11-06T01:24:46.233Z,99894.25
2022-11-06T01:27:25.855Z,99896.81
2022-11-06T01:29:53.320Z,99886.44
2022-11-06T01:32:20.643Z,99893.31
2022-11-06T01:34:48.919Z,99884.66
2022-11-06T01:37:15.544Z,99890.75
2022-11-06T01:39:42.448Z,99880.31
2022-11-06T01:42:13.148Z,99882.13
2022-11-06T01:44:42.955Z,99889.06
2022-11-06T01:47:23.980Z,99882.94
2022-11-06T01:49:51.562Z,99889.00
2022-11-06T01:52:18.615Z,99887.28
2022-11-06T01:54:45.955Z,99889.91
2022-11-06T01:57:13.011Z,99892.56
2022-11-06T01:59:41.344Z,99893.41
2022-11-06T02:02:08.319Z,99889.88
2022-11-06T02:04:38.795Z,99898.56
2022-11-06T02:07:05.517Z,99895.97
2022-11-06T02:09:32.353Z,99897.72
2022-11-06T02:12:03.192Z,99903.75
2022-11-06T02:14:51.196Z,99897.69
2022-11-06T02:17:18.081Z,99903.75
2022-11-06T02:19:50.560Z,99904.63
2022-11-06T02:22:29.063Z,99915.88
2022-11-06T02:25:14.844Z,99907.31
2022-11-06T02:27:44.302Z,99913.28
2022-11-06T02:30:12.347Z,99912.44
2022-11-06T02:32:46.807Z,99915.91
2022-11-06T02:35:16.964Z,99908.94
2022-11-06T02:37:43.647Z,99911.56
2022-11-06T02:40:10.488Z,99917.66
2022-11-06T02:42:38.348Z,99922.78
2022-11-06T02:45:05.257Z,99928.03
2022-11-06T02:47:33.192Z,99927.22
2022-11-06T02:50:05.926Z,99940.94
2022-11-06T02:52:34.504Z,99933.19
2022-11-06T02:55:03.803Z,99938.47
2022-11-06T02:57:30.488Z,99941.94
2022-11-06T03:00:07.542Z,99941.91
2022-11-06T03:02:43.112Z,99936.72
2022-11-06T03:05:12.027Z,99940.22
2022-11-06T03:07:40.343Z,99945.47
2022-11-06T03:10:07.219Z,99945.44
2022-11-06T03:12:38.611Z,99944.53
2022-11-06T03:15:20.797Z,99945.41
2022-11-06T03:18:02.659Z,99952.38
2022-11-06T03:20:49.821Z,99953.25
2022-11-06T03:23:19.061Z,99954.09
2022-11-06T03:25:49.156Z,99949.72
2022-11-06T03:28:16.068Z,99961.03
2022-11-06T03:30:44.823Z,99958.41
2022-11-06T03:33:11.770Z,99961.03
2022-11-06T03:35:41.130Z,99964.50
2022-11-06T03:38:09.564Z,99968.88
2022-11-06T03:40:38.007Z,99971.47
2022-11-06T03:43:05.243Z,99974.94
2022-11-06T03:45:33.005Z,99974.91
2022-11-06T03:48:01.400Z,99968.91
2022-11-06T03:50:30.736Z,99974.97
2022-11-06T03:52:59.056Z,99969.72
2022-11-06T03:55:27.297Z,99977.56
2022-11-06T03:57:55.444Z,99978.37
2022-11-06T04:00:23.110Z,99977.53
2022-11-06T04:03:04.970Z,99985.31
2022-11-06T04:05:45.767Z,99981.84
2022-11-06T04:08:31.519Z,99981.84
2022-11-06T04:11:18.584Z,99982.75
2022-11-06T04:13:57.711Z,99987.13
2022-11-06T04:16:32.098Z,99982.78
2022-11-06T04:18:59.207Z,99983.59
2022-11-06T04:21:35.170Z,99987.94
2022-11-06T04:24:26.910Z,99987.09
2022-11-06T04:27:12.415Z,99981.91
2022-11-06T04:29:39.311Z,99980.19
2022-11-06T04:32:24.625Z,99987.09
2022-11-06T04:35:20.920Z,99989.69
2022-11-06T04:37:56.956Z,99985.37
2022-11-06T04:40:26.320Z,99990.53
2022-11-06T04:42:57.603Z,99989.69
2022-11-06T04:45:26.047Z,99987.09
2022-11-06T04:47:53.526Z,99987.97
2022-11-06T04:50:21.025Z,99992.34
2022-11-06T04:52:48.212Z,99985.28
2022-11-06T04:55:14.853Z,99996.62
2022-11-06T04:57:41.477Z,99988.81
2022-11-06T05:00:11.090Z,99994.03
2022-11-06T05:02:37.744Z,99991.34
2022-11-06T05:05:04.557Z,99998.31
2022-11-06T05:07:31.512Z,99997.47
2022-11-06T05:09:58.331Z,99992.25
2022-11-06T05:12:24.968Z,99987.06
2022-11-06T05:14:51.920Z,99999.19
2022-11-06T05:17:18.581Z,99991.44
2022-11-06T05:19:45.236Z,99995.72
2022-11-06T05:22:30.825Z,99995.66
2022-11-06T05:24:57.489Z,99998.34
2022-11-06T05:27:24.446Z,100000.13
2022-11-06T05:29:51.114Z,100003.47
2022-11-06T05:32:17.915Z,100011.31
2022-11-06T05:34:46.908Z,100004.28
2022-11-06T05:37:13.551Z,100010.44
2022-11-06T05:39:42.088Z,100010.50
2022-11-06T05:42:09.169Z,100021.75
2022-11-06T05:44:36.040Z,100022.63
2022-11-06T05:47:02.751Z,100020.03
2022-11-06T05:49:29.727Z,100026.97
2022-11-06T05:51:56.363Z,100030.44
2022-11-06T05:54:24.001Z,100035.66
2022-11-06T05:56:52.224Z,100038.25
2022-11-06T05:59:18.883Z,100035.62
2022-11-06T06:01:45.687Z,100040.00
2022-11-06T06:04:12.727Z,100043.41
2022-11-06T06:06:39.425Z,100051.22
2022-11-06T06:09:06.153Z,100053.03
2022-11-06T06:11:33.080Z,100065.97
2022-11-06T06:14:00.216Z,100063.38
2022-11-06T06:16:26.854Z,100061.72
2022-11-06T06:18:53.751Z,100072.06
2022-11-06T06:21:20.486Z,100069.47
2022-11-06T06:23:47.189Z,100070.34
2022-11-06T06:26:14.097Z,100070.28
2022-11-06T06:28:40.793Z,100071.16
2022-11-06T06:31:07.781Z,100074.72
2022-11-06T06:33:34.806Z,100073.78
2022-11-06T06:36:05.197Z,100076.41
2022-11-06T06:38:32.127Z,100078.16
2022-11-06T06:41:03.120Z,100089.47
2022-11-06T06:43:29.739Z,100080.66
2022-11-06T06:46:00.147Z,100096.34
2022-11-06T06:48:27.129Z,100096.44
2022-11-06T06:50:56.494Z,100104.97
2022-11-06T06:53:23.177Z,100105.06
2022-11-06T06:55:50.126Z,100108.56
2022-11-06T06:58:18.203Z,100112.84
2022-11-06T07:00:45.181Z,100109.44
2022-11-06T07:03:12.243Z,100105.09
2022-11-06T07:05:38.915Z,100108.47
2022-11-06T07:08:05.601Z,100111.19
2022-11-06T07:10:32.891Z,100117.34
2022-11-06T07:13:02.793Z,100117.31
2022-11-06T07:15:29.509Z,100117.28
2022-11-06T07:18:01.740Z,100119.81
2022-11-06T07:20:29.113Z,100124.19
2022-11-06T07:22:56.134Z,100125.94
2022-11-06T07:25:22.758Z,100125.78
2022-11-06T07:27:49.418Z,100120.69
2022-11-06T07:30:16.979Z,100129.44
2022-11-06T07:32:43.794Z,100123.34
2022-11-06T07:35:10.544Z,100126.81
2022-11-06T07:37:37.454Z,100125.06
2022-11-06T07:40:05.367Z,100122.53
2022-11-06T07:42:32.009Z,100136.38
2022-11-06T07:45:00.807Z,100136.25
2022-11-06T07:47:30.115Z,100141.53
2022-11-06T07:49:56.771Z,100144.00
2022-11-06T07:52:23.848Z,100133.75
2022-11-06T07:54:51.864Z,100134.63
2022-11-06T07:57:18.557Z,100139.78
2022-11-06T07:59:45.507Z,100138.06
2022-11-06T08:02:13.099Z,100142.37
2022-11-06T08:04:40.236Z,100133.81
2022-11-06T08:07:06.915Z,100145.03
2022-11-06T08:09:33.572Z,100138.03
2022-11-06T08:12:00.483Z,100134.63
2022-11-06T08:14:27.116Z,100143.25
2022-11-06T08:16:54.062Z,100134.44
2022-11-06T08:19:21.085Z,100143.25
2022-11-06T08:21:47.734Z,100139.88
2022-11-06T08:24:19.046Z,100141.47
2022-11-06T08:26:48.638Z,100146.78
2022-11-06T08:29:15.300Z,100148.44
2022-11-06T08:31:42.183Z,100145.94
2022-11-06T08:34:09.320Z,100146.75
2022-11-06T08:36:36.958Z,100148.44
2022-11-06T08:39:03.703Z,100146.81
2022-11-06T08:41:30.621Z,100143.31
2022-11-06T08:43:57.445Z,100146.72
2022-11-06T08:46:24.104Z,100147.66
2022-11-06T08:48:51.095Z,100145.06
2022-11-06T08:51:17.821Z,100141.56
2022-11-06T08:53:44.603Z,100139.88
2022-11-06T08:56:12.084Z,100152.06
2022-11-06T08:58:38.707Z,100143.31
2022-11-06T09:01:05.444Z,100144.25
2022-11-06T09:03:32.452Z,100145.94
2022-11-06T09:05:59.165Z,100150.34
2022-11-06T09:08:25.993Z,100149.56
2022-11-06T09:10:58.153Z,100146.03
2022-11-06T09:13:26.316Z,100146.00
2022-11-06T09:15:53.297Z,100141.75
2022-11-06T09:18:20.378Z,100142.59
2022-11-06T09:20:47.286Z,100133.09
2022-11-06T09:23:15.527Z,100133.09
2022-11-06T09:25:42.723Z,100134.97
2022-11-06T09:28:09.915Z,100133.16
2022-11-06T09:30:37.427Z,100127.94
2022-11-06T09:33:06.169Z,100134.91
2022-11-06T09:35:36.275Z,100136.66
2022-11-06T09:38:03.958Z,100131.50
2022-11-06T09:40:44.583Z,100134.00
2022-11-06T09:43:43.156Z,100129.72
2022-11-06T09:46:21.202Z,100127.97
2022-11-06T09:48:50.763Z,100128.00
2022-11-06T09:51:35.983Z,100122.84
2022-11-06T09:54:16.593Z,100124.56
2022-11-06T09:56:43.377Z,100126.34
2022-11-06T09:59:17.404Z,100115.88
2022-11-06T10:01:46.277Z,100127.16
2022-11-06T10:04:37.037Z,100128.06
2022-11-06T10:07:11.656Z,100121.13
2022-11-06T10:09:38.803Z,100116.72
2022-11-06T10:12:11.675Z,100119.38
2022-11-06T10:14:41.587Z,100115.00
2022-11-06T10:17:27.205Z,100118.50
2022-11-06T10:19:58.063Z,100114.19
2022-11-06T10:22:31.298Z,100110.69
2022-11-06T10:25:04.523Z,100111.56
2022-11-06T10:27:41.279Z,100114.19
2022-11-06T10:30:08.294Z,100114.16
2022-11-06T10:32:54.032Z,100115.91
2022-11-06T10:35:24.000Z,100111.56
2022-11-06T10:38:13.126Z,100112.44
2022-11-06T10:40:40.458Z,100102.03
2022-11-06T10:43:07.186Z,100106.34
2022-11-06T10:45:33.996Z,100102.03
2022-11-06T10:48:05.896Z,100100.25
2022-11-06T10:50:40.456Z,100097.69
2022-11-06T10:53:08.677Z,100091.59
2022-11-06T10:55:39.831Z,100093.34
2022-11-06T10:58:10.888Z,100088.97
2022-11-06T11:00:40.308Z,100086.34
2022-11-06T11:03:13.826Z,100082.03
2022-11-06T11:05:41.824Z,100082.88
2022-11-06T11:08:44.221Z,100078.53
2022-11-06T11:11:14.254Z,100077.63
2022-11-06T11:13:41.856Z,100077.59
2022-11-06T11:16:16.925Z,100074.16
2022-11-06T11:18:44.791Z,100072.41
2022-11-06T11:21:17.653Z,100072.41
2022-11-06T11:23:46.427Z,100075.03
2022-11-06T11:26:13.109Z,100074.09
2022-11-06T11:28:39.728Z,100075.03
2022-11-06T11:31:12.014Z,100075.03
2022-11-06T11:33:42.434Z,100074.16
2022-11-06T11:36:09.951Z,100081.13
2022-11-06T11:38:37.525Z,100088.03
2022-11-06T11:41:19.511Z,100078.47
2022-11-06T11:43:59.123Z,100082.84
2022-11-06T11:46:27.249Z,100080.22
2022-11-06T11:48:57.884Z,100075.88
2022-11-06T11:51:28.385Z,100067.16
2022-11-06T11:54:13.673Z,100068.88
2022-11-06T11:57:03.765Z,100068.84
2022-11-06T11:59:38.413Z,100064.53
2022-11-06T12:02:19.802Z,100065.44
2022-11-06T12:04:53.514Z,100072.34
2022-11-06T12:07:30.127Z,100081.09
2022-11-06T12:09:57.109Z,100071.50
2022-11-06T12:12:24.703Z,100075.81
2022-11-06T12:15:04.173Z,100072.41
2022-11-06T12:17:31.739Z,100068.06
2022-11-06T12:19:58.871Z,100074.16
2022-11-06T12:22:28.016Z,100070.63
2022-11-06T12:24:56.375Z,100069.78
2022-11-06T12:27:24.554Z,100073.22
2022-11-06T12:29:51.995Z,100073.25
2022-11-06T12:32:21.755Z,100067.13
2022-11-06T12:34:50.940Z,100067.13
2022-11-06T12:37:23.441Z,100064.47
2022-11-06T12:40:05.588Z,100066.25
2022-11-06T12:42:32.369Z,100069.78
2022-11-06T12:44:59.699Z,100072.38
2022-11-06T12:47:34.012Z,100077.59
2022-11-06T12:50:13.372Z,100081.06
2022-11-06T12:53:03.452Z,100076.72
2022-11-06T12:55:38.032Z,100075.84
2022-11-06T12:58:11.162Z,100076.69
2022-11-06T13:00:41.672Z,100071.44
2022-11-06T13:03:08.752Z,100074.00
2022-11-06T13:05:38.270Z,100069.69
2022-11-06T13:08:20.768Z,100071.47
2022-11-06T13:10:52.259Z,100072.28
2022-11-06T13:13:22.186Z,100074.87
2022-11-06T13:15:51.710Z,100075.84
2022-11-06T13:18:18.468Z,100070.53
2022-11-06T13:20:52.768Z,100072.28
2022-11-06T13:23:27.010Z,100069.66
2022-11-06T13:26:04.561Z,100068.78
2022-11-06T13:28:35.618Z,100068.84
2022-11-06T13:31:03.509Z,100067.13
2022-11-06T13:33:31.419Z,100066.09
2022-11-06T13:35:59.246Z,100054.84
2022-11-06T13:38:29.800Z,100060.13
2022-11-06T13:41:03.649Z,100059.22
2022-11-06T13:43:31.154Z,100060.97
2022-11-06T13:46:07.659Z,100061.69
2022-11-06T13:48:37.750Z,100061.81
2022-11-06T13:51:09.044Z,100061.78
2022-11-06T13:53:39.103Z,100056.59
2022-11-06T13:56:07.190Z,100051.25
2022-11-06T13:58:55.379Z,100049.50
2022-11-06T14:01:34.805Z,100047.78
2022-11-06T14:04:09.251Z,100042.62
2022-11-06T14:06:36.433Z,100041.72
2022-11-06T14:09:07.410Z,100039.06
2022-11-06T14:11:38.103Z,100046.12
2022-11-06T14:14:15.014Z,100040.91
2022-11-06T14:16:43.693Z,100037.37
2022-11-06T14:19:15.211Z,100043.41
2022-11-06T14:21:47.195Z,100038.09
2022-11-06T14:24:14.384Z,100044.28
2022-11-06T14:26:45.584Z,100040.78
2022-11-06T14:29:27.922Z,100034.69
2022-11-06T14:32:07.940Z,100039.91
2022-11-06T14:34:35.564Z,100039.97
2022-11-06T14:37:18.035Z,100046.94
2022-11-06T14:39:52.987Z,100049.56
2022-11-06T14:42:40.574Z,100047.88
2022-11-06T14:45:12.544Z,100050.44
2022-11-06T14:47:39.736Z,100053.06
2022-11-06T14:50:09.269Z,100054.81
2022-11-06T14:52:48.111Z,100039.97
2022-11-06T14:55:24.082Z,100060.00
2022-11-06T14:57:51.391Z,100058.28
2022-11-06T15:00:38.494Z,100071.41
2022-11-06T15:03:06.275Z,100067.13
2022-11-06T15:05:41.869Z,100064.47
2022-11-06T15:08:09.464Z,100064.47
2022-11-06T15:10:42.449Z,100062.78
2022-11-06T15:13:09.524Z,100068.91
2022-11-06T15:15:36.492Z,100060.16
2022-11-06T15:18:03.207Z,100070.63
2022-11-06T15:20:31.190Z,100078.47
2022-11-06T15:22:59.802Z,100072.38
2022-11-06T15:25:28.166Z,100074.16
2022-11-06T15:27:59.693Z,100074.19
2022-11-06T15:30:26.836Z,100075.91
2022-11-06T15:32:54.700Z,100074.19
2022-11-06T15:35:28.867Z,100077.69
2022-11-06T15:38:04.851Z,100068.94
2022-11-06T15:40:36.267Z,100072.47
2022-11-06T15:43:22.142Z,100065.47
2022-11-06T15:46:06.825Z,100073.31
2022-11-06T15:48:35.219Z,100075.06
2022-11-06T15:51:03.007Z,100075.03
2022-11-06T15:53:30.397Z,100074.16
2022-11-06T15:56:01.810Z,100076.75
2022-11-06T15:58:35.822Z,100067.22
2022-11-06T16:01:03.972Z,100075.06
2022-11-06T16:03:32.482Z,100075.91
2022-11-06T16:06:03.683Z,100084.59
2022-11-06T16:08:31.791Z,100082.00
2022-11-06T16:10:59.343Z,100082.88
2022-11-06T16:13:26.947Z,100077.66
2022-11-06T16:15:53.864Z,100079.41
2022-11-06T16:18:23.913Z,100084.59
2022-11-06T16:20:57.357Z,100081.13
2022-11-06T16:23:33.587Z,100082.84
2022-11-06T16:26:11.724Z,100077.63
2022-11-06T16:28:42.635Z,100067.19
2022-11-06T16:31:23.360Z,100078.53
2022-11-06T16:33:57.593Z,100082.88
2022-11-06T16:36:25.950Z,100079.41
2022-11-06T16:38:54.276Z,100088.06
2022-11-06T16:41:42.767Z,100089.81
2022-11-06T16:44:22.584Z,100086.34
2022-11-06T16:47:09.780Z,100081.16
2022-11-06T16:49:40.796Z,100088.09
2022-11-06T16:52:28.013Z,100089.81
2022-11-06T16:54:56.824Z,100089.81
2022-11-06T16:57:26.110Z,100081.97
2022-11-06T17:00:13.657Z,100079.41
2022-11-06T17:02:41.023Z,100076.78
2022-11-06T17:05:13.164Z,100077.66
2022-11-06T17:07:41.900Z,100081.13
2022-11-06T17:10:24.686Z,100084.59
2022-11-06T17:12:52.044Z,100082.00
2022-11-06T17:15:24.895Z,100086.31
2022-11-06T17:17:52.195Z,100089.81
2022-11-06T17:20:19.718Z,100088.94
2022-11-06T17:22:47.070Z,100089.81
2022-11-06T17:25:14.624Z,100086.34
2022-11-06T17:27:42.024Z,100094.16
2022-11-06T17:30:13.371Z,100089.84
2022-11-06T17:32:41.257Z,100082.84
2022-11-06T17:35:09.603Z,100087.22
2022-11-06T17:37:37.059Z,100086.31
2022-11-06T17:40:08.142Z,100083.72
2022-11-06T17:42:35.796Z,100084.59
2022-11-06T17:45:03.764Z,100095.03
2022-11-06T17:47:32.023Z,100088.88
2022-11-06T17:50:00.007Z,100095.84
2022-11-06T17:52:27.916Z,100096.72
2022-11-06T17:54:55.536Z,100101.09
2022-11-06T17:57:24.193Z,100107.12
2022-11-06T17:59:51.685Z,100113.19
2022-11-06T18:02:40.781Z,100115.78
2022-11-06T18:05:08.410Z,100116.69
2022-11-06T18:07:35.772Z,100119.22
2022-11-06T18:10:04.704Z,100119.25
2022-11-06T18:12:32.384Z,100120.09
2022-11-06T18:15:01.226Z,100116.56
2022-11-06T18:17:29.989Z,100117.41
2022-11-06T18:19:57.881Z,100119.06
2022-11-06T18:22:25.146Z,100128.66
2022-11-06T18:24:53.866Z,100134.63
2022-11-06T18:27:21.811Z,100122.56
2022-11-06T18:29:48.613Z,100122.53
2022-11-06T18:32:16.474Z,100126.97
2022-11-06T18:34:44.801Z,100120.81
2022-11-06T18:37:12.292Z,100118.19
2022-11-06T18:39:40.297Z,100125.97
2022-11-06T18:42:08.060Z,100128.75
2022-11-06T18:44:40.918Z,100131.22
2022-11-06T18:47:08.890Z,100127.63
2022-11-06T18:49:36.878Z,100127.56
2022-11-06T18:52:04.614Z,100131.13
2022-11-06T18:54:32.262Z,100132.66
2022-11-06T18:57:00.296Z,100126.69
2022-11-06T18:59:29.739Z,100130.62
2022-11-06T19:01:57.949Z,100129.00
2022-11-06T19:04:26.868Z,100134.41
2022-11-06T19:06:54.877Z,100136.16
2022-11-06T19:09:25.247Z,100137.78
2022-11-06T19:11:53.899Z,100125.69
2022-11-06T19:14:26.840Z,100139.63
2022-11-06T19:16:54.492Z,100126.59
2022-11-06T19:19:25.471Z,100124.13
2022-11-06T19:21:53.718Z,100129.00
2022-11-06T19:24:20.995Z,100127.44
2022-11-06T19:26:51.068Z,100123.16
2022-11-06T19:29:21.054Z,100118.84
2022-11-06T19:31:49.652Z,100118.94
2022-11-06T19:34:16.862Z,100117.03
2022-11-06T19:36:48.785Z,100122.97
2022-11-06T19:39:19.337Z,100115.37
2022-11-06T19:41:47.914Z,100105.03
2022-11-06T19:44:15.545Z,100112.59
2022-11-06T19:46:42.726Z,100107.56
2022-11-06T19:49:11.586Z,100117.00
2022-11-06T19:51:41.054Z,100128.41
2022-11-06T19:54:12.356Z,100134.34
2022-11-06T19:57:29.145Z,100122.13
2022-11-06T19:59:40.228Z,100121.13
2022-11-06T20:02:08.256Z,100134.34
2022-11-06T20:04:39.403Z,100132.59
2022-11-06T20:07:07.988Z,100120.38
2022-11-06T20:09:35.204Z,100121.91
2022-11-06T20:12:04.341Z,100127.38
2022-11-06T20:14:31.816Z,100133.22
2022-11-06T20:16:59.156Z,100137.66
2022-11-06T20:19:27.982Z,100134.06
2022-11-06T20:21:58.692Z,100132.34
2022-11-06T20:24:27.033Z,100139.22
2022-11-06T20:26:54.923Z,100136.69
2022-11-06T20:29:22.277Z,100141.03
2022-11-06T20:31:52.772Z,100142.63
2022-11-06T20:34:26.954Z,100137.44
2022-11-06T20:36:54.767Z,100146.13
2022-11-06T20:39:22.646Z,100141.81
2022-11-06T20:41:52.332Z,100146.19
2022-11-06T20:44:19.536Z,100158.44
2022-11-06T20:46:47.915Z,100161.94
2022-11-06T20:49:15.377Z,100159.13
2022-11-06T20:52:07.392Z,100156.59
2022-11-06T20:54:29.895Z,100153.84
2022-11-06T20:56:57.114Z,100159.81
2022-11-06T20:59:24.026Z,100158.84
2022-11-06T21:01:52.261Z,100157.62
2022-11-06T21:04:19.620Z,100157.16
2022-11-06T21:06:47.709Z,100147.88
2022-11-06T21:09:16.948Z,100159.81
2022-11-06T21:11:43.936Z,100147.50
2022-11-06T21:14:11.181Z,100148.41
2022-11-06T21:16:42.516Z,100157.88
2022-11-06T21:19:10.367Z,100152.75
2022-11-06T21:21:38.183Z,100157.78
2022-11-06T21:24:06.095Z,100163.22
2022-11-06T21:26:37.473Z,100161.56
2022-11-06T21:29:05.783Z,100159.13
2022-11-06T21:31:43.952Z,100166.75
2022-11-06T21:34:25.478Z,100153.56
2022-11-06T21:36:52.622Z,100156.16
2022-11-06T21:39:21.642Z,100160.53
2022-11-06T21:41:54.036Z,100167.88
2022-11-06T21:44:22.379Z,100171.41
2022-11-06T21:46:54.126Z,100163.06
2022-11-06T21:49:21.746Z,100166.47
2022-11-06T21:51:51.789Z,100172.75
2022-11-06T21:54:37.483Z,100165.13
2022-11-06T21:57:04.697Z,100167.78
2022-11-06T21:59:35.198Z,100174.88
2022-11-06T22:02:06.407Z,100172.63
2022-11-06T22:04:33.512Z,100181.88
2022-11-06T22:07:00.240Z,100179.97
2022-11-06T22:09:28.498Z,100185.31
2022-11-06T22:11:55.627Z,100183.69
2022-11-06T22:14:22.481Z,100181.97
2022-11-06T22:16:49.867Z,100185.28
2022-11-06T22:19:17.681Z,100176.91
2022-11-06T22:21:44.434Z,100190.50
2022-11-06T22:24:11.674Z,100185.44
2022-11-06T22:26:38.712Z,100185.34
2022-11-06T22:29:06.388Z,100185.94
2022-11-06T22:31:33.151Z,100173.91
2022-11-06T22:34:00.222Z,100178.50
2022-11-06T22:36:26.913Z,100175.25
2022-11-06T22:38:53.871Z,100175.25
2022-11-06T22:41:22.352Z,100171.69
2022-11-06T22:43:49.099Z,100173.38
2022-11-06T22:46:20.182Z,100180.97
2022-11-06T22:48:47.544Z,100173.22
2022-11-06T22:51:15.235Z,100178.03
2022-11-06T22:53:42.042Z,100181.56
2022-11-06T22:56:09.155Z,100175.53
2022-11-06T22:58:35.794Z,100176.41
2022-11-06T23:01:02.478Z,100177.28
2022-11-06T23:03:29.900Z,100171.25
2022-11-06T23:05:59.960Z,100168.25
2022-11-06T23:08:26.824Z,100161.28
2022-11-06T23:10:54.794Z,100165.03
2022-11-06T23:13:21.668Z,100158.56
2022-11-06T23:15:48.555Z,100162.47
2022-11-06T23:18:15.478Z,100164.97
2022-11-06T23:20:42.164Z,100169.16
2022-11-06T23:23:08.850Z,100167.41
2022-11-06T23:25:35.919Z,100170.13
2022-11-06T23:28:02.583Z,100177.03
2022-11-06T23:30:32.164Z,100175.34
2022-11-06T23:32:59.080Z,100170.25
2022-11-06T23:35:31.985Z,100172.03
2022-11-06T23:37:59.742Z,100176.31
2022-11-06T23:40:26.424Z,100173.91
2022-11-06T23:42:54.776Z,100164.28
2022-11-06T23:45:40.570Z,100167.78
2022-11-06T23:48:13.498Z,100173.78
2022-11-06T23:50:40.854Z,100177.16
2022-11-06T23:53:07.561Z,100182.34
2022-11-06T23:55:34.204Z,100181.62
2022-11-06T23:58:01.144Z,100187.50
